sensor_id;sensor_type;location;lat;lon;timestamp;P1;durP1;ratioP1;P2;durP2;ratioP2
72437;SDS011;60444;43.534;-5.674;2023-12-20T00:02:15;5.75;;;0.77;;
72437;SDS011;60444;43.534;-5.674;2023-12-20T00:04:41;7.47;;;0.90;;
72437;SDS011;60444;43.534;-5.674;2023-12-20T00:07:07;11.70;;;1.05;;
72437;SDS011;60444;43.534;-5.674;2023-12-20T00:09:32;11.83;;;0.70;;
72437;SDS011;60444;43.534;-5.674;2023-12-20T00:11:58;10.47;;;1.00;;
72437;SDS011;60444;43.534;-5.674;2023-12-20T00:14:23;5.28;;;0.73;;
72437;SDS011;60444;43.534;-5.674;2023-12-20T00:16:49;6.53;;;0.80;;
72437;SDS011;60444;43.534;-5.674;2023-12-20T00:19:14;7.33;;;1.10;;
72437;SDS011;60444;43.534;-5.674;2023-12-20T00:21:40;8.87;;;0.60;;
72437;SDS011;60444;43.534;-5.674;2023-12-20T00:24:05;9.10;;;0.80;;
72437;SDS011;60444;43.534;-5.674;2023-12-20T00:26:31;7.80;;;1.07;;
72437;SDS011;60444;43.534;-5.674;2023-12-20T00:28:56;8.95;;;0.80;;
72437;SDS011;60444;43.534;-5.674;2023-12-20T00:31:22;7.97;;;1.27;;
72437;SDS011;60444;43.534;-5.674;2023-12-20T00:33:47;7.60;;;0.87;;
72437;SDS011;60444;43.534;-5.674;2023-12-20T00:36:13;6.93;;;1.00;;
72437;SDS011;60444;43.534;-5.674;2023-12-20T00:38:38;13.30;;;1.17;;
72437;SDS011;60444;43.534;-5.674;2023-12-20T00:41:04;6.60;;;0.90;;
72437;SDS011;60444;43.534;-5.674;2023-12-20T00:43:29;9.10;;;1.10;;
72437;SDS011;60444;43.534;-5.674;2023-12-20T00:45:55;12.52;;;1.00;;
72437;SDS011;60444;43.534;-5.674;2023-12-20T00:48:20;10.37;;;0.80;;
72437;SDS011;60444;43.534;-5.674;2023-12-20T00:50:46;16.83;;;1.50;;
72437;SDS011;60444;43.534;-5.674;2023-12-20T00:53:12;9.20;;;0.90;;
72437;SDS011;60444;43.534;-5.674;2023-12-20T00:55:37;11.83;;;1.20;;
72437;SDS011;60444;43.534;-5.674;2023-12-20T00:58:03;10.57;;;1.13;;
72437;SDS011;60444;43.534;-5.674;2023-12-20T01:00:28;12.93;;;1.13;;
72437;SDS011;60444;43.534;-5.674;2023-12-20T01:02:54;9.63;;;1.37;;
72437;SDS011;60444;43.534;-5.674;2023-12-20T01:05:20;12.93;;;1.40;;
72437;SDS011;60444;43.534;-5.674;2023-12-20T01:07:48;11.60;;;1.48;;
72437;SDS011;60444;43.534;-5.674;2023-12-20T01:10:14;14.33;;;1.30;;
72437;SDS011;60444;43.534;-5.674;2023-12-20T01:12:40;16.63;;;1.40;;
72437;SDS011;60444;43.534;-5.674;2023-12-20T01:15:05;6.23;;;0.50;;
72437;SDS011;60444;43.534;-5.674;2023-12-20T01:17:31;6.03;;;0.65;;
72437;SDS011;60444;43.534;-5.674;2023-12-20T01:19:56;5.47;;;0.80;;
72437;SDS011;60444;43.534;-5.674;2023-12-20T01:22:23;5.32;;;0.70;;
72437;SDS011;60444;43.534;-5.674;2023-12-20T01:24:48;6.13;;;0.70;;
72437;SDS011;60444;43.534;-5.674;2023-12-20T01:27:14;5.03;;;0.80;;
72437;SDS011;60444;43.534;-5.674;2023-12-20T01:29:39;6.67;;;0.67;;
72437;SDS011;60444;43.534;-5.674;2023-12-20T01:32:05;3.63;;;0.63;;
72437;SDS011;60444;43.534;-5.674;2023-12-20T01:34:31;6.72;;;0.55;;
72437;SDS011;60444;43.534;-5.674;2023-12-20T01:36:57;7.78;;;0.80;;
72437;SDS011;60444;43.534;-5.674;2023-12-20T01:39:22;7.33;;;0.57;;
72437;SDS011;60444;43.534;-5.674;2023-12-20T01:41:48;7.13;;;0.80;;
72437;SDS011;60444;43.534;-5.674;2023-12-20T01:44:13;8.98;;;0.88;;
72437;SDS011;60444;43.534;-5.674;2023-12-20T01:46:39;8.40;;;1.87;;
72437;SDS011;60444;43.534;-5.674;2023-12-20T01:49:04;11.30;;;1.10;;
72437;SDS011;60444;43.534;-5.674;2023-12-20T01:51:30;7.53;;;0.80;;
72437;SDS011;60444;43.534;-5.674;2023-12-20T01:53:56;6.00;;;0.90;;
72437;SDS011;60444;43.534;-5.674;2023-12-20T01:56:23;7.47;;;0.80;;
72437;SDS011;60444;43.534;-5.674;2023-12-20T01:58:49;6.88;;;1.00;;
72437;SDS011;60444;43.534;-5.674;2023-12-20T02:01:15;10.80;;;1.48;;
72437;SDS011;60444;43.534;-5.674;2023-12-20T02:03:41;7.83;;;1.10;;
72437;SDS011;60444;43.534;-5.674;2023-12-20T02:06:07;10.35;;;0.80;;
72437;SDS011;60444;43.534;-5.674;2023-12-20T02:08:34;11.68;;;1.02;;
72437;SDS011;60444;43.534;-5.674;2023-12-20T02:11:00;10.10;;;1.05;;
72437;SDS011;60444;43.534;-5.674;2023-12-20T02:13:26;12.67;;;1.20;;
72437;SDS011;60444;43.534;-5.674;2023-12-20T02:15:52;8.13;;;1.30;;
72437;SDS011;60444;43.534;-5.674;2023-12-20T02:18:17;11.70;;;0.97;;
72437;SDS011;60444;43.534;-5.674;2023-12-20T02:20:43;12.18;;;1.23;;
72437;SDS011;60444;43.534;-5.674;2023-12-20T02:23:09;9.02;;;1.40;;
72437;SDS011;60444;43.534;-5.674;2023-12-20T02:25:35;14.30;;;1.40;;
72437;SDS011;60444;43.534;-5.674;2023-12-20T02:28:00;14.63;;;1.47;;
72437;SDS011;60444;43.534;-5.674;2023-12-20T02:30:27;11.05;;;1.13;;
72437;SDS011;60444;43.534;-5.674;2023-12-20T02:32:52;9.77;;;1.00;;
72437;SDS011;60444;43.534;-5.674;2023-12-20T02:35:19;8.23;;;1.40;;
72437;SDS011;60444;43.534;-5.674;2023-12-20T02:37:44;9.77;;;0.73;;
72437;SDS011;60444;43.534;-5.674;2023-12-20T02:40:10;7.77;;;0.97;;
72437;SDS011;60444;43.534;-5.674;2023-12-20T02:42:35;7.43;;;1.13;;
72437;SDS011;60444;43.534;-5.674;2023-12-20T02:45:01;11.48;;;0.90;;
72437;SDS011;60444;43.534;-5.674;2023-12-20T02:47:27;8.77;;;1.70;;
72437;SDS011;60444;43.534;-5.674;2023-12-20T02:49:54;4.60;;;0.70;;
72437;SDS011;60444;43.534;-5.674;2023-12-20T02:52:19;6.80;;;0.73;;
72437;SDS011;60444;43.534;-5.674;2023-12-20T02:54:45;4.65;;;0.47;;
72437;SDS011;60444;43.534;-5.674;2023-12-20T02:57:10;5.73;;;0.43;;
72437;SDS011;60444;43.534;-5.674;2023-12-20T02:59:36;1.92;;;0.30;;
72437;SDS011;60444;43.534;-5.674;2023-12-20T03:02:02;4.10;;;0.73;;
72437;SDS011;60444;43.534;-5.674;2023-12-20T03:04:27;5.53;;;0.60;;
72437;SDS011;60444;43.534;-5.674;2023-12-20T03:06:53;4.27;;;0.60;;
72437;SDS011;60444;43.534;-5.674;2023-12-20T03:09:18;8.48;;;0.88;;
72437;SDS011;60444;43.534;-5.674;2023-12-20T03:11:44;7.50;;;0.70;;
72437;SDS011;60444;43.534;-5.674;2023-12-20T03:14:09;4.93;;;0.50;;
72437;SDS011;60444;43.534;-5.674;2023-12-20T03:16:35;4.77;;;0.40;;
72437;SDS011;60444;43.534;-5.674;2023-12-20T03:19:00;8.00;;;0.50;;
72437;SDS011;60444;43.534;-5.674;2023-12-20T03:21:26;6.27;;;0.80;;
72437;SDS011;60444;43.534;-5.674;2023-12-20T03:23:51;10.13;;;1.00;;
72437;SDS011;60444;43.534;-5.674;2023-12-20T03:26:16;10.55;;;0.90;;
72437;SDS011;60444;43.534;-5.674;2023-12-20T03:28:42;9.97;;;0.97;;
72437;SDS011;60444;43.534;-5.674;2023-12-20T03:31:09;7.80;;;0.60;;
72437;SDS011;60444;43.534;-5.674;2023-12-20T03:33:36;6.97;;;0.80;;
72437;SDS011;60444;43.534;-5.674;2023-12-20T03:36:01;3.50;;;0.50;;
72437;SDS011;60444;43.534;-5.674;2023-12-20T03:38:27;8.20;;;0.75;;
72437;SDS011;60444;43.534;-5.674;2023-12-20T03:40:53;9.13;;;1.13;;
72437;SDS011;60444;43.534;-5.674;2023-12-20T03:43:18;10.13;;;0.70;;
72437;SDS011;60444;43.534;-5.674;2023-12-20T03:45:44;7.68;;;0.80;;
72437;SDS011;60444;43.534;-5.674;2023-12-20T03:48:09;11.37;;;1.40;;
72437;SDS011;60444;43.534;-5.674;2023-12-20T03:50:35;10.00;;;1.20;;
72437;SDS011;60444;43.534;-5.674;2023-12-20T03:53:00;8.95;;;1.08;;
72437;SDS011;60444;43.534;-5.674;2023-12-20T03:55:26;11.60;;;1.30;;
72437;SDS011;60444;43.534;-5.674;2023-12-20T03:57:52;11.10;;;1.83;;
72437;SDS011;60444;43.534;-5.674;2023-12-20T04:00:17;12.17;;;1.20;;
72437;SDS011;60444;43.534;-5.674;2023-12-20T04:02:43;13.05;;;1.42;;
72437;SDS011;60444;43.534;-5.674;2023-12-20T04:05:09;11.27;;;0.90;;
72437;SDS011;60444;43.534;-5.674;2023-12-20T04:07:35;17.55;;;1.42;;
72437;SDS011;60444;43.534;-5.674;2023-12-20T04:10:02;10.30;;;1.38;;
72437;SDS011;60444;43.534;-5.674;2023-12-20T04:12:28;12.07;;;1.35;;
72437;SDS011;60444;43.534;-5.674;2023-12-20T04:14:54;14.97;;;1.73;;
72437;SDS011;60444;43.534;-5.674;2023-12-20T04:17:20;13.63;;;2.33;;
72437;SDS011;60444;43.534;-5.674;2023-12-20T04:19:47;12.88;;;1.20;;
72437;SDS011;60444;43.534;-5.674;2023-12-20T04:22:13;12.88;;;1.50;;
72437;SDS011;60444;43.534;-5.674;2023-12-20T04:24:42;10.63;;;1.35;;
72437;SDS011;60444;43.534;-5.674;2023-12-20T04:27:08;10.10;;;1.10;;
72437;SDS011;60444;43.534;-5.674;2023-12-20T04:29:34;18.42;;;2.45;;
72437;SDS011;60444;43.534;-5.674;2023-12-20T04:31:59;12.00;;;1.50;;
72437;SDS011;60444;43.534;-5.674;2023-12-20T04:34:25;14.73;;;2.15;;
72437;SDS011;60444;43.534;-5.674;2023-12-20T04:36:51;11.00;;;1.50;;
72437;SDS011;60444;43.534;-5.674;2023-12-20T04:39:16;15.63;;;1.80;;
72437;SDS011;60444;43.534;-5.674;2023-12-20T04:41:42;14.43;;;1.40;;
72437;SDS011;60444;43.534;-5.674;2023-12-20T04:44:07;20.33;;;2.93;;
72437;SDS011;60444;43.534;-5.674;2023-12-20T04:46:33;15.87;;;1.97;;
72437;SDS011;60444;43.534;-5.674;2023-12-20T04:48:58;14.60;;;1.50;;
72437;SDS011;60444;43.534;-5.674;2023-12-20T04:51:24;10.60;;;1.67;;
72437;SDS011;60444;43.534;-5.674;2023-12-20T04:53:49;16.70;;;1.60;;
72437;SDS011;60444;43.534;-5.674;2023-12-20T04:56:15;11.23;;;1.00;;
72437;SDS011;60444;43.534;-5.674;2023-12-20T04:58:41;11.60;;;1.17;;
72437;SDS011;60444;43.534;-5.674;2023-12-20T05:01:07;11.23;;;1.55;;
72437;SDS011;60444;43.534;-5.674;2023-12-20T05:03:33;15.95;;;1.60;;
72437;SDS011;60444;43.534;-5.674;2023-12-20T05:05:59;6.87;;;1.20;;
72437;SDS011;60444;43.534;-5.674;2023-12-20T05:08:24;13.90;;;1.20;;
72437;SDS011;60444;43.534;-5.674;2023-12-20T05:10:50;11.20;;;1.60;;
72437;SDS011;60444;43.534;-5.674;2023-12-20T05:13:18;8.70;;;1.45;;
72437;SDS011;60444;43.534;-5.674;2023-12-20T05:15:44;9.63;;;1.03;;
72437;SDS011;60444;43.534;-5.674;2023-12-20T05:18:09;9.43;;;1.13;;
72437;SDS011;60444;43.534;-5.674;2023-12-20T05:20:35;8.27;;;0.90;;
72437;SDS011;60444;43.534;-5.674;2023-12-20T05:23:00;10.57;;;0.90;;
72437;SDS011;60444;43.534;-5.674;2023-12-20T05:25:26;13.33;;;1.30;;
72437;SDS011;60444;43.534;-5.674;2023-12-20T05:27:52;14.63;;;1.30;;
72437;SDS011;60444;43.534;-5.674;2023-12-20T05:30:18;9.53;;;1.60;;
72437;SDS011;60444;43.534;-5.674;2023-12-20T05:32:44;12.00;;;1.60;;
72437;SDS011;60444;43.534;-5.674;2023-12-20T05:35:09;10.33;;;1.00;;
72437;SDS011;60444;43.534;-5.674;2023-12-20T05:37:35;10.13;;;0.98;;
72437;SDS011;60444;43.534;-5.674;2023-12-20T05:40:00;8.47;;;1.00;;
72437;SDS011;60444;43.534;-5.674;2023-12-20T05:42:26;11.27;;;1.40;;
72437;SDS011;60444;43.534;-5.674;2023-12-20T05:44:51;12.33;;;1.73;;
72437;SDS011;60444;43.534;-5.674;2023-12-20T05:47:17;8.43;;;0.90;;
72437;SDS011;60444;43.534;-5.674;2023-12-20T05:49:43;9.47;;;1.23;;
72437;SDS011;60444;43.534;-5.674;2023-12-20T05:52:10;13.45;;;1.52;;
72437;SDS011;60444;43.534;-5.674;2023-12-20T05:54:36;7.83;;;0.70;;
72437;SDS011;60444;43.534;-5.674;2023-12-20T05:57:01;6.25;;;1.38;;
72437;SDS011;60444;43.534;-5.674;2023-12-20T05:59:27;5.70;;;0.73;;
72437;SDS011;60444;43.534;-5.674;2023-12-20T06:01:52;8.03;;;1.00;;
72437;SDS011;60444;43.534;-5.674;2023-12-20T06:04:18;9.23;;;1.00;;
72437;SDS011;60444;43.534;-5.674;2023-12-20T06:06:44;7.53;;;0.90;;
72437;SDS011;60444;43.534;-5.674;2023-12-20T06:09:10;7.72;;;1.30;;
72437;SDS011;60444;43.534;-5.674;2023-12-20T06:11:35;5.85;;;0.90;;
72437;SDS011;60444;43.534;-5.674;2023-12-20T06:14:01;10.63;;;1.20;;
72437;SDS011;60444;43.534;-5.674;2023-12-20T06:16:27;8.23;;;0.80;;
72437;SDS011;60444;43.534;-5.674;2023-12-20T06:18:52;8.57;;;0.90;;
72437;SDS011;60444;43.534;-5.674;2023-12-20T06:21:18;6.10;;;0.90;;
72437;SDS011;60444;43.534;-5.674;2023-12-20T06:23:43;10.30;;;0.70;;
72437;SDS011;60444;43.534;-5.674;2023-12-20T06:26:09;6.60;;;1.03;;
72437;SDS011;60444;43.534;-5.674;2023-12-20T06:28:35;6.17;;;0.73;;
72437;SDS011;60444;43.534;-5.674;2023-12-20T06:31:00;7.78;;;0.90;;
72437;SDS011;60444;43.534;-5.674;2023-12-20T06:33:26;7.50;;;1.10;;
72437;SDS011;60444;43.534;-5.674;2023-12-20T06:35:52;10.27;;;1.15;;
72437;SDS011;60444;43.534;-5.674;2023-12-20T06:38:18;7.60;;;0.63;;
72437;SDS011;60444;43.534;-5.674;2023-12-20T06:40:44;6.97;;;1.17;;
72437;SDS011;60444;43.534;-5.674;2023-12-20T06:43:09;11.73;;;1.00;;
72437;SDS011;60444;43.534;-5.674;2023-12-20T06:45:35;8.20;;;1.00;;
72437;SDS011;60444;43.534;-5.674;2023-12-20T06:48:00;7.23;;;0.83;;
72437;SDS011;60444;43.534;-5.674;2023-12-20T06:50:26;8.70;;;1.00;;
72437;SDS011;60444;43.534;-5.674;2023-12-20T06:52:52;6.15;;;0.90;;
72437;SDS011;60444;43.534;-5.674;2023-12-20T06:55:21;8.25;;;1.05;;
72437;SDS011;60444;43.534;-5.674;2023-12-20T06:57:46;10.50;;;1.10;;
72437;SDS011;60444;43.534;-5.674;2023-12-20T07:00:12;7.28;;;0.80;;
72437;SDS011;60444;43.534;-5.674;2023-12-20T07:02:38;9.07;;;1.13;;
72437;SDS011;60444;43.534;-5.674;2023-12-20T07:05:03;7.20;;;0.70;;
72437;SDS011;60444;43.534;-5.674;2023-12-20T07:07:29;11.27;;;1.17;;
72437;SDS011;60444;43.534;-5.674;2023-12-20T07:09:55;6.90;;;1.10;;
72437;SDS011;60444;43.534;-5.674;2023-12-20T07:12:21;5.83;;;1.07;;
72437;SDS011;60444;43.534;-5.674;2023-12-20T07:14:46;7.47;;;0.80;;
72437;SDS011;60444;43.534;-5.674;2023-12-20T07:17:12;8.80;;;0.90;;
72437;SDS011;60444;43.534;-5.674;2023-12-20T07:19:40;7.13;;;0.70;;
72437;SDS011;60444;43.534;-5.674;2023-12-20T07:22:06;11.45;;;1.60;;
72437;SDS011;60444;43.534;-5.674;2023-12-20T07:24:32;8.63;;;0.90;;
72437;SDS011;60444;43.534;-5.674;2023-12-20T07:27:01;10.23;;;1.10;;
72437;SDS011;60444;43.534;-5.674;2023-12-20T07:29:27;8.68;;;1.00;;
72437;SDS011;60444;43.534;-5.674;2023-12-20T07:31:53;9.50;;;1.00;;
72437;SDS011;60444;43.534;-5.674;2023-12-20T07:34:19;9.40;;;1.38;;
72437;SDS011;60444;43.534;-5.674;2023-12-20T07:36:45;7.97;;;1.20;;
72437;SDS011;60444;43.534;-5.674;2023-12-20T07:39:11;9.20;;;1.03;;
72437;SDS011;60444;43.534;-5.674;2023-12-20T07:41:36;10.75;;;0.98;;
72437;SDS011;60444;43.534;-5.674;2023-12-20T07:44:02;6.60;;;1.00;;
72437;SDS011;60444;43.534;-5.674;2023-12-20T07:46:29;7.05;;;0.80;;
72437;SDS011;60444;43.534;-5.674;2023-12-20T07:48:54;10.50;;;1.40;;
72437;SDS011;60444;43.534;-5.674;2023-12-20T07:51:20;5.37;;;0.80;;
72437;SDS011;60444;43.534;-5.674;2023-12-20T07:53:46;7.10;;;1.05;;
72437;SDS011;60444;43.534;-5.674;2023-12-20T07:56:18;7.88;;;1.30;;
72437;SDS011;60444;43.534;-5.674;2023-12-20T07:58:44;8.07;;;1.20;;
72437;SDS011;60444;43.534;-5.674;2023-12-20T08:01:10;6.57;;;0.93;;
72437;SDS011;60444;43.534;-5.674;2023-12-20T08:03:37;7.68;;;1.10;;
72437;SDS011;60444;43.534;-5.674;2023-12-20T08:06:03;5.75;;;1.15;;
72437;SDS011;60444;43.534;-5.674;2023-12-20T08:08:29;7.00;;;0.80;;
72437;SDS011;60444;43.534;-5.674;2023-12-20T08:10:54;6.00;;;0.87;;
72437;SDS011;60444;43.534;-5.674;2023-12-20T08:13:22;5.57;;;0.70;;
72437;SDS011;60444;43.534;-5.674;2023-12-20T08:15:51;7.22;;;1.00;;
72437;SDS011;60444;43.534;-5.674;2023-12-20T08:18:16;7.27;;;1.00;;
72437;SDS011;60444;43.534;-5.674;2023-12-20T08:20:42;6.88;;;1.20;;
72437;SDS011;60444;43.534;-5.674;2023-12-20T08:23:07;5.07;;;0.50;;
72437;SDS011;60444;43.534;-5.674;2023-12-20T08:25:33;6.83;;;0.83;;
72437;SDS011;60444;43.534;-5.674;2023-12-20T08:27:58;8.13;;;1.03;;
72437;SDS011;60444;43.534;-5.674;2023-12-20T08:30:24;14.07;;;1.43;;
72437;SDS011;60444;43.534;-5.674;2023-12-20T08:32:50;6.90;;;1.00;;
72437;SDS011;60444;43.534;-5.674;2023-12-20T08:35:16;5.72;;;0.90;;
72437;SDS011;60444;43.534;-5.674;2023-12-20T08:37:43;6.55;;;0.90;;
72437;SDS011;60444;43.534;-5.674;2023-12-20T08:40:08;5.93;;;0.67;;
72437;SDS011;60444;43.534;-5.674;2023-12-20T08:42:34;8.85;;;0.90;;
72437;SDS011;60444;43.534;-5.674;2023-12-20T08:45:00;6.13;;;1.00;;
72437;SDS011;60444;43.534;-5.674;2023-12-20T08:47:25;6.67;;;0.93;;
72437;SDS011;60444;43.534;-5.674;2023-12-20T08:49:51;6.07;;;0.90;;
72437;SDS011;60444;43.534;-5.674;2023-12-20T08:52:21;7.97;;;1.35;;
72437;SDS011;60444;43.534;-5.674;2023-12-20T08:54:48;4.85;;;0.70;;
72437;SDS011;60444;43.534;-5.674;2023-12-20T08:57:14;5.23;;;0.70;;
72437;SDS011;60444;43.534;-5.674;2023-12-20T08:59:39;7.85;;;1.10;;
72437;SDS011;60444;43.534;-5.674;2023-12-20T09:02:05;6.67;;;1.07;;
72437;SDS011;60444;43.534;-5.674;2023-12-20T09:04:30;6.70;;;0.80;;
72437;SDS011;60444;43.534;-5.674;2023-12-20T09:06:55;7.43;;;0.83;;
72437;SDS011;60444;43.534;-5.674;2023-12-20T09:09:21;5.43;;;0.70;;
72437;SDS011;60444;43.534;-5.674;2023-12-20T09:11:46;4.10;;;0.50;;
72437;SDS011;60444;43.534;-5.674;2023-12-20T09:14:15;6.15;;;1.20;;
72437;SDS011;60444;43.534;-5.674;2023-12-20T09:16:40;5.47;;;0.90;;
72437;SDS011;60444;43.534;-5.674;2023-12-20T09:19:06;6.97;;;1.42;;
72437;SDS011;60444;43.534;-5.674;2023-12-20T09:21:31;5.73;;;0.90;;
72437;SDS011;60444;43.534;-5.674;2023-12-20T09:23:57;4.73;;;0.77;;
72437;SDS011;60444;43.534;-5.674;2023-12-20T09:26:22;7.53;;;2.00;;
72437;SDS011;60444;43.534;-5.674;2023-12-20T09:28:48;5.83;;;0.90;;
72437;SDS011;60444;43.534;-5.674;2023-12-20T09:31:13;5.23;;;0.77;;
72437;SDS011;60444;43.534;-5.674;2023-12-20T09:33:39;9.47;;;1.20;;
72437;SDS011;60444;43.534;-5.674;2023-12-20T09:36:04;8.10;;;1.10;;
72437;SDS011;60444;43.534;-5.674;2023-12-20T09:38:30;9.47;;;0.87;;
72437;SDS011;60444;43.534;-5.674;2023-12-20T09:40:56;8.15;;;1.35;;
72437;SDS011;60444;43.534;-5.674;2023-12-20T09:43:22;10.70;;;1.30;;
72437;SDS011;60444;43.534;-5.674;2023-12-20T09:45:52;7.40;;;0.85;;
72437;SDS011;60444;43.534;-5.674;2023-12-20T09:48:18;8.57;;;1.13;;
72437;SDS011;60444;43.534;-5.674;2023-12-20T09:50:45;8.32;;;1.20;;
72437;SDS011;60444;43.534;-5.674;2023-12-20T09:53:12;7.63;;;1.10;;
72437;SDS011;60444;43.534;-5.674;2023-12-20T09:55:41;5.55;;;1.05;;
72437;SDS011;60444;43.534;-5.674;2023-12-20T09:58:07;6.82;;;0.80;;
72437;SDS011;60444;43.534;-5.674;2023-12-20T10:00:36;8.35;;;1.02;;
72437;SDS011;60444;43.534;-5.674;2023-12-20T10:03:06;7.28;;;1.20;;
72437;SDS011;60444;43.534;-5.674;2023-12-20T10:05:32;6.67;;;0.90;;
72437;SDS011;60444;43.534;-5.674;2023-12-20T10:07:59;8.00;;;1.02;;
72437;SDS011;60444;43.534;-5.674;2023-12-20T10:10:25;5.97;;;1.00;;
72437;SDS011;60444;43.534;-5.674;2023-12-20T10:15:35;6.85;;;1.17;;
72437;SDS011;60444;43.534;-5.674;2023-12-20T10:18:02;4.70;;;1.00;;
72437;SDS011;60444;43.534;-5.674;2023-12-20T10:20:29;7.95;;;1.05;;
72437;SDS011;60444;43.534;-5.674;2023-12-20T10:22:55;6.38;;;1.13;;
72437;SDS011;60444;43.534;-5.674;2023-12-20T10:25:22;6.25;;;0.95;;
72437;SDS011;60444;43.534;-5.674;2023-12-20T10:27:49;4.30;;;1.10;;
72437;SDS011;60444;43.534;-5.674;2023-12-20T10:30:15;6.10;;;1.05;;
72437;SDS011;60444;43.534;-5.674;2023-12-20T10:32:41;6.63;;;1.50;;
72437;SDS011;60444;43.534;-5.674;2023-12-20T10:35:07;7.20;;;1.20;;
72437;SDS011;60444;43.534;-5.674;2023-12-20T10:37:35;4.63;;;1.50;;
72437;SDS011;60444;43.534;-5.674;2023-12-20T10:40:03;5.68;;;1.20;;
72437;SDS011;60444;43.534;-5.674;2023-12-20T10:42:31;10.07;;;1.08;;
72437;SDS011;60444;43.534;-5.674;2023-12-20T10:44:59;7.03;;;1.03;;
72437;SDS011;60444;43.534;-5.674;2023-12-20T10:47:25;4.82;;;1.02;;
72437;SDS011;60444;43.534;-5.674;2023-12-20T10:49:52;7.45;;;1.08;;
72437;SDS011;60444;43.534;-5.674;2023-12-20T10:52:18;5.65;;;1.13;;
72437;SDS011;60444;43.534;-5.674;2023-12-20T10:54:45;7.45;;;1.35;;
72437;SDS011;60444;43.534;-5.674;2023-12-20T10:57:11;7.00;;;1.40;;
72437;SDS011;60444;43.534;-5.674;2023-12-20T10:59:37;7.18;;;1.13;;
72437;SDS011;60444;43.534;-5.674;2023-12-20T11:02:04;5.55;;;1.27;;
72437;SDS011;60444;43.534;-5.674;2023-12-20T11:04:37;5.63;;;1.00;;
72437;SDS011;60444;43.534;-5.674;2023-12-20T11:07:17;5.30;;;0.90;;
72437;SDS011;60444;43.534;-5.674;2023-12-20T11:09:57;5.30;;;1.00;;
72437;SDS011;60444;43.534;-5.674;2023-12-20T11:15:04;6.05;;;1.05;;
72437;SDS011;60444;43.534;-5.674;2023-12-20T11:17:31;6.67;;;1.00;;
72437;SDS011;60444;43.534;-5.674;2023-12-20T11:22:26;6.13;;;1.30;;
72437;SDS011;60444;43.534;-5.674;2023-12-20T11:24:58;6.20;;;0.90;;
72437;SDS011;60444;43.534;-5.674;2023-12-20T11:27:28;5.50;;;0.80;;
72437;SDS011;60444;43.534;-5.674;2023-12-20T11:29:56;4.85;;;0.90;;
72437;SDS011;60444;43.534;-5.674;2023-12-20T11:34:50;8.48;;;1.23;;
72437;SDS011;60444;43.534;-5.674;2023-12-20T11:37:19;5.90;;;1.20;;
72437;SDS011;60444;43.534;-5.674;2023-12-20T11:39:45;5.00;;;1.20;;
72437;SDS011;60444;43.534;-5.674;2023-12-20T11:42:40;6.07;;;0.93;;
72437;SDS011;60444;43.534;-5.674;2023-12-20T11:45:24;4.35;;;0.70;;
72437;SDS011;60444;43.534;-5.674;2023-12-20T11:47:51;6.68;;;1.10;;
72437;SDS011;60444;43.534;-5.674;2023-12-20T11:50:19;5.63;;;1.00;;
72437;SDS011;60444;43.534;-5.674;2023-12-20T11:52:46;4.68;;;1.10;;
72437;SDS011;60444;43.534;-5.674;2023-12-20T11:55:12;5.00;;;0.82;;
72437;SDS011;60444;43.534;-5.674;2023-12-20T11:57:38;5.70;;;1.07;;
72437;SDS011;60444;43.534;-5.674;2023-12-20T12:00:03;5.38;;;1.08;;
72437;SDS011;60444;43.534;-5.674;2023-12-20T12:02:30;5.90;;;0.90;;
72437;SDS011;60444;43.534;-5.674;2023-12-20T12:04:56;7.82;;;1.10;;
72437;SDS011;60444;43.534;-5.674;2023-12-20T12:07:23;6.75;;;1.20;;
72437;SDS011;60444;43.534;-5.674;2023-12-20T12:09:49;11.43;;;1.33;;
72437;SDS011;60444;43.534;-5.674;2023-12-20T12:12:14;6.60;;;0.80;;
72437;SDS011;60444;43.534;-5.674;2023-12-20T12:14:40;6.22;;;1.20;;
72437;SDS011;60444;43.534;-5.674;2023-12-20T12:17:12;5.10;;;1.10;;
72437;SDS011;60444;43.534;-5.674;2023-12-20T12:19:39;5.78;;;0.80;;
72437;SDS011;60444;43.534;-5.674;2023-12-20T12:24:38;4.63;;;0.87;;
72437;SDS011;60444;43.534;-5.674;2023-12-20T12:27:05;4.63;;;0.98;;
72437;SDS011;60444;43.534;-5.674;2023-12-20T12:29:32;6.82;;;1.30;;
72437;SDS011;60444;43.534;-5.674;2023-12-20T12:31:57;4.60;;;0.87;;
72437;SDS011;60444;43.534;-5.674;2023-12-20T12:34:23;5.25;;;0.80;;
72437;SDS011;60444;43.534;-5.674;2023-12-20T12:36:49;3.28;;;0.70;;
72437;SDS011;60444;43.534;-5.674;2023-12-20T12:39:15;4.87;;;0.80;;
72437;SDS011;60444;43.534;-5.674;2023-12-20T12:41:42;5.25;;;0.80;;
72437;SDS011;60444;43.534;-5.674;2023-12-20T12:44:08;4.77;;;0.93;;
72437;SDS011;60444;43.534;-5.674;2023-12-20T12:46:33;7.70;;;0.95;;
72437;SDS011;60444;43.534;-5.674;2023-12-20T12:48:59;4.70;;;0.90;;
72437;SDS011;60444;43.534;-5.674;2023-12-20T12:51:25;3.75;;;0.90;;
72437;SDS011;60444;43.534;-5.674;2023-12-20T12:53:50;4.70;;;0.80;;
72437;SDS011;60444;43.534;-5.674;2023-12-20T12:56:16;6.30;;;0.90;;
72437;SDS011;60444;43.534;-5.674;2023-12-20T12:58:42;6.53;;;0.95;;
72437;SDS011;60444;43.534;-5.674;2023-12-20T13:01:07;5.13;;;0.97;;
72437;SDS011;60444;43.534;-5.674;2023-12-20T13:03:33;8.40;;;1.90;;
72437;SDS011;60444;43.534;-5.674;2023-12-20T13:05:59;8.73;;;1.52;;
72437;SDS011;60444;43.534;-5.674;2023-12-20T13:08:25;7.40;;;2.70;;
72437;SDS011;60444;43.534;-5.674;2023-12-20T13:10:51;10.45;;;3.97;;
72437;SDS011;60444;43.534;-5.674;2023-12-20T13:13:16;9.73;;;3.63;;
72437;SDS011;60444;43.534;-5.674;2023-12-20T13:15:42;11.83;;;5.60;;
72437;SDS011;60444;43.534;-5.674;2023-12-20T13:18:07;12.57;;;5.95;;
72437;SDS011;60444;43.534;-5.674;2023-12-20T13:20:33;10.70;;;4.70;;
72437;SDS011;60444;43.534;-5.674;2023-12-20T13:22:58;11.90;;;4.30;;
72437;SDS011;60444;43.534;-5.674;2023-12-20T13:25:24;8.47;;;2.87;;
72437;SDS011;60444;43.534;-5.674;2023-12-20T13:27:50;10.47;;;3.50;;
72437;SDS011;60444;43.534;-5.674;2023-12-20T13:30:18;10.77;;;2.75;;
72437;SDS011;60444;43.534;-5.674;2023-12-20T13:32:43;6.53;;;1.45;;
72437;SDS011;60444;43.534;-5.674;2023-12-20T13:35:09;5.87;;;1.20;;
72437;SDS011;60444;43.534;-5.674;2023-12-20T13:37:34;4.20;;;1.00;;
72437;SDS011;60444;43.534;-5.674;2023-12-20T13:40:00;7.68;;;2.58;;
72437;SDS011;60444;43.534;-5.674;2023-12-20T13:42:28;5.93;;;1.07;;
72437;SDS011;60444;43.534;-5.674;2023-12-20T13:44:53;5.32;;;1.02;;
72437;SDS011;60444;43.534;-5.674;2023-12-20T13:47:19;3.13;;;0.70;;
72437;SDS011;60444;43.534;-5.674;2023-12-20T13:49:45;4.57;;;1.10;;
72437;SDS011;60444;43.534;-5.674;2023-12-20T13:52:10;5.80;;;1.83;;
72437;SDS011;60444;43.534;-5.674;2023-12-20T13:54:37;5.87;;;1.40;;
72437;SDS011;60444;43.534;-5.674;2023-12-20T13:57:03;7.95;;;2.03;;
72437;SDS011;60444;43.534;-5.674;2023-12-20T13:59:29;5.32;;;1.30;;
72437;SDS011;60444;43.534;-5.674;2023-12-20T14:01:54;5.93;;;1.50;;
72437;SDS011;60444;43.534;-5.674;2023-12-20T14:04:22;6.65;;;1.85;;
72437;SDS011;60444;43.534;-5.674;2023-12-20T14:06:47;7.73;;;2.17;;
72437;SDS011;60444;43.534;-5.674;2023-12-20T14:09:13;7.72;;;1.80;;
72437;SDS011;60444;43.534;-5.674;2023-12-20T14:11:40;6.60;;;1.70;;
72437;SDS011;60444;43.534;-5.674;2023-12-20T14:14:09;6.05;;;1.77;;
72437;SDS011;60444;43.534;-5.674;2023-12-20T14:16:34;7.50;;;1.90;;
72437;SDS011;60444;43.534;-5.674;2023-12-20T14:19:01;6.57;;;1.85;;
72437;SDS011;60444;43.534;-5.674;2023-12-20T14:21:28;7.53;;;1.45;;
72437;SDS011;60444;43.534;-5.674;2023-12-20T14:23:53;6.07;;;1.83;;
72437;SDS011;60444;43.534;-5.674;2023-12-20T14:26:19;7.33;;;1.50;;
72437;SDS011;60444;43.534;-5.674;2023-12-20T14:28:44;5.75;;;1.17;;
72437;SDS011;60444;43.534;-5.674;2023-12-20T14:31:10;5.50;;;1.40;;
72437;SDS011;60444;43.534;-5.674;2023-12-20T14:33:35;5.60;;;1.47;;
72437;SDS011;60444;43.534;-5.674;2023-12-20T14:36:04;4.55;;;1.10;;
72437;SDS011;60444;43.534;-5.674;2023-12-20T14:38:33;4.65;;;1.38;;